createdAt,value
2019-04-27T00:01:40.674Z,27.40
2019-04-27T00:04:19.285Z,27.40
2019-04-27T00:06:53.761Z,27.50
2019-04-27T00:09:36.987Z,27.60
2019-04-27T00:12:16.520Z,27.50
2019-04-27T00:14:48.382Z,27.50
2019-04-27T00:17:45.030Z,27.70
2019-04-27T00:20:17.494Z,27.70
2019-04-27T00:22:57.280Z,27.80
2019-04-27T00:25:30.353Z,27.90
2019-04-27T00:28:03.554Z,28.10
2019-04-27T00:30:37.031Z,28.30
2019-04-27T00:33:09.720Z,28.40
2019-04-27T00:35:43.784Z,28.50
2019-04-27T00:38:25.085Z,28.80
2019-04-27T00:40:59.090Z,28.90
2019-04-27T00:43:32.823Z,29.00
2019-04-27T00:46:05.441Z,29.20
2019-04-27T00:48:38.553Z,29.40
2019-04-27T00:51:14.243Z,29.40
2019-04-27T00:53:45.386Z,29.50
2019-04-27T00:56:31.747Z,29.70
2019-04-27T00:59:24.046Z,29.70
2019-04-27T01:02:04.190Z,29.90
2019-04-27T01:04:37.558Z,30.00
2019-04-27T01:07:11.715Z,30.30
2019-04-27T01:09:44.297Z,30.40
2019-04-27T01:12:16.827Z,30.40
2019-04-27T01:14:48.767Z,30.60
2019-04-27T01:17:21.293Z,30.80
2019-04-27T01:19:53.648Z,30.80
2019-04-27T01:22:26.646Z,31.00
2019-04-27T01:24:59.750Z,31.10
2019-04-27T01:27:49.619Z,31.10
2019-04-27T01:30:23.864Z,31.00
2019-04-27T01:32:59.575Z,31.10
2019-04-27T01:35:32.841Z,31.00
2019-04-27T01:38:05.901Z,30.90
2019-04-27T01:40:38.678Z,31.30
2019-04-27T01:43:11.253Z,31.70
2019-04-27T01:45:50.802Z,31.80
2019-04-27T01:48:25.794Z,32.00
2019-04-27T01:51:02.255Z,32.00
2019-04-27T01:53:34.504Z,32.20
2019-04-27T01:56:09.067Z,32.30
2019-04-27T01:58:42.019Z,32.50
2019-04-27T02:01:21.217Z,32.60
2019-04-27T02:04:10.926Z,32.80
2019-04-27T02:06:44.668Z,32.90
2019-04-27T02:09:18.955Z,33.00
2019-04-27T02:11:51.559Z,33.10
2019-04-27T02:14:28.766Z,33.00
2019-04-27T02:17:01.702Z,33.10
2019-04-27T02:19:34.746Z,33.20
2019-04-27T02:22:11.059Z,33.30
2019-04-27T02:24:46.252Z,33.40
2019-04-27T02:27:24.050Z,33.40
2019-04-27T02:30:05.441Z,33.50
2019-04-27T02:32:41.193Z,33.60
2019-04-27T02:35:15.007Z,33.80
2019-04-27T02:37:51.270Z,33.90
2019-04-27T02:40:59.800Z,33.90
2019-04-27T02:43:44.650Z,33.90
2019-04-27T02:46:25.146Z,34.00
2019-04-27T02:49:03.555Z,34.00
2019-04-27T02:51:42.866Z,33.90
2019-04-27T02:54:20.409Z,33.90
2019-04-27T02:56:59.206Z,34.00
2019-04-27T02:59:31.894Z,34.10
2019-04-27T03:02:14.991Z,33.80
2019-04-27T03:04:51.100Z,33.90
2019-04-27T03:07:25.312Z,33.60
2019-04-27T03:10:02.380Z,33.60
2019-04-27T03:12:39.867Z,33.80
2019-04-27T03:15:16.844Z,33.90
2019-04-27T03:18:09.848Z,33.40
2019-04-27T03:20:50.146Z,33.40
2019-04-27T03:23:24.689Z,33.50
2019-04-27T03:26:14.408Z,33.60
2019-04-27T03:28:50.265Z,33.70
2019-04-27T03:31:32.348Z,33.70
2019-04-27T03:34:05.554Z,33.40
2019-04-27T03:36:40.340Z,33.20
2019-04-27T03:39:14.485Z,33.50
2019-04-27T03:41:50.220Z,33.60
2019-04-27T03:44:25.949Z,33.50
2019-04-27T03:47:01.414Z,33.50
2019-04-27T03:49:41.577Z,33.60
2019-04-27T03:52:26.066Z,33.80
2019-04-27T03:55:14.331Z,33.90
2019-04-27T03:57:56.868Z,33.80
2019-04-27T04:00:33.049Z,33.60
2019-04-27T04:03:07.255Z,33.60
2019-04-27T04:05:42.745Z,33.70
2019-04-27T04:08:19.802Z,33.60
2019-04-27T04:10:59.542Z,33.50
2019-04-27T04:13:39.110Z,33.60
2019-04-27T04:16:17.589Z,33.80
2019-04-27T04:19:03.907Z,33.90
2019-04-27T04:21:40.375Z,34.00
2019-04-27T04:24:19.713Z,33.90
2019-04-27T04:26:52.412Z,33.90
2019-04-27T04:29:31.455Z,34.00
2019-04-27T04:32:06.491Z,34.00
2019-04-27T04:34:40.882Z,34.00
2019-04-27T04:37:14.770Z,33.90
2019-04-27T04:39:53.043Z,33.90
2019-04-27T04:42:31.392Z,33.90
2019-04-27T04:45:10.626Z,34.00
2019-04-27T04:47:45.223Z,34.00
2019-04-27T04:50:22.782Z,33.90
2019-04-27T04:52:57.068Z,33.90
2019-04-27T04:55:32.491Z,33.80
2019-04-27T04:58:09.383Z,33.80
2019-04-27T05:00:44.323Z,33.80
2019-04-27T05:03:21.916Z,33.70
2019-04-27T05:05:58.830Z,33.70
2019-04-27T05:08:33.772Z,33.80
2019-04-27T05:11:09.499Z,33.90
2019-04-27T05:13:44.671Z,34.00
2019-04-27T05:16:39.090Z,34.20
2019-04-27T05:19:15.842Z,34.30
2019-04-27T05:21:51.587Z,34.30
2019-04-27T05:24:29.114Z,34.40
2019-04-27T05:27:03.473Z,34.50
2019-04-27T05:29:39.112Z,34.70
2019-04-27T05:32:13.903Z,34.80
2019-04-27T05:34:49.516Z,35.00
2019-04-27T05:37:28.243Z,35.00
2019-04-27T05:40:04.182Z,35.00
2019-04-27T05:42:40.232Z,35.10
2019-04-27T05:45:21.424Z,35.10
2019-04-27T05:48:01.154Z,35.10
2019-04-27T05:50:43.491Z,35.10
2019-04-27T05:53:16.095Z,35.00
2019-04-27T05:55:50.099Z,35.00
2019-04-27T05:58:28.783Z,34.90
2019-04-27T06:01:05.655Z,34.70
2019-04-27T06:03:41.098Z,34.90
2019-04-27T06:06:14.973Z,34.70
2019-04-27T06:08:51.560Z,34.90
2019-04-27T06:11:28.432Z,35.00
2019-04-27T06:14:09.667Z,35.20
2019-04-27T06:16:46.370Z,35.30
2019-04-27T06:19:20.264Z,35.20
2019-04-27T06:21:56.210Z,35.50
2019-04-27T06:24:30.000Z,35.70
2019-04-27T06:27:03.701Z,35.60
2019-04-27T06:29:40.897Z,35.40
2019-04-27T06:32:19.181Z,35.30
2019-04-27T06:34:54.837Z,35.50
2019-04-27T06:37:29.924Z,35.40
2019-04-27T06:40:09.787Z,35.40
2019-04-27T06:42:44.901Z,35.20
2019-04-27T06:45:21.613Z,35.00
2019-04-27T06:47:59.409Z,35.00
2019-04-27T06:50:34.880Z,35.00
2019-04-27T06:53:10.055Z,34.90
2019-04-27T06:55:45.137Z,35.10
2019-04-27T06:58:23.172Z,35.30
2019-04-27T07:00:59.569Z,35.50
2019-04-27T07:03:34.611Z,35.70
2019-04-27T07:06:09.614Z,35.90
2019-04-27T07:08:47.004Z,36.00
2019-04-27T07:11:23.647Z,36.30
2019-04-27T07:14:01.171Z,36.40
2019-04-27T07:16:39.130Z,36.70
2019-04-27T07:19:14.766Z,36.70
2019-04-27T07:21:49.817Z,36.70
2019-04-27T07:24:25.004Z,36.60
2019-04-27T07:27:00.202Z,36.80
2019-04-27T07:29:34.958Z,36.60
2019-04-27T07:32:16.654Z,36.60
2019-04-27T07:34:55.200Z,37.00
2019-04-27T07:37:29.424Z,37.00
2019-04-27T07:40:04.747Z,37.20
2019-04-27T07:42:41.385Z,37.70
2019-04-27T07:45:19.520Z,37.90
2019-04-27T07:47:55.730Z,38.10
2019-04-27T07:50:31.190Z,38.00
2019-04-27T07:53:05.446Z,38.40
2019-04-27T07:55:39.974Z,38.60
2019-04-27T07:58:13.755Z,38.80
2019-04-27T08:00:52.671Z,38.30
2019-04-27T08:03:29.231Z,37.90
2019-04-27T08:06:02.973Z,37.70
2019-04-27T08:08:36.642Z,37.70
2019-04-27T08:11:11.386Z,38.00
2019-04-27T08:13:46.806Z,37.70
2019-04-27T08:16:20.983Z,37.60
2019-04-27T08:18:56.684Z,37.10
2019-04-27T08:21:43.068Z,36.80
2019-04-27T08:24:11.083Z,36.30
2019-04-27T08:27:03.144Z,36.10
2019-04-27T08:29:46.369Z,35.80
2019-04-27T08:32:22.945Z,35.40
2019-04-27T08:34:56.537Z,35.20
2019-04-27T08:37:33.448Z,35.00
2019-04-27T08:40:10.991Z,34.80
2019-04-27T08:42:48.853Z,34.60
2019-04-27T08:45:23.489Z,34.40
2019-04-27T08:47:59.247Z,34.20
2019-04-27T08:50:32.539Z,34.10
2019-04-27T08:53:06.502Z,34.00
2019-04-27T08:55:40.143Z,33.90
2019-04-27T08:58:15.356Z,33.70
2019-04-27T09:00:50.629Z,33.70
2019-04-27T09:03:25.830Z,33.40
2019-04-27T09:06:02.002Z,33.30
2019-04-27T09:08:39.026Z,33.20
2019-04-27T09:11:21.382Z,33.00
2019-04-27T09:14:01.337Z,32.90
2019-04-27T09:16:38.936Z,32.90
2019-04-27T09:19:32.109Z,33.00
2019-04-27T09:22:15.850Z,33.00
2019-04-27T09:24:46.464Z,33.00
2019-04-27T09:27:23.082Z,33.00
2019-04-27T09:29:59.037Z,32.90
2019-04-27T09:32:33.312Z,32.70
2019-04-27T09:35:08.758Z,32.60
2019-04-27T09:37:47.413Z,32.50
2019-04-27T09:40:23.866Z,32.40
2019-04-27T09:42:57.747Z,32.40
2019-04-27T09:45:32.898Z,32.50
2019-04-27T09:48:06.802Z,32.50
2019-04-27T09:50:40.496Z,32.40
2019-04-27T09:53:15.814Z,32.10
2019-04-27T09:55:51.130Z,32.10
2019-04-27T09:58:29.271Z,32.10
2019-04-27T10:01:03.380Z,32.00
2019-04-27T10:03:37.385Z,32.00
2019-04-27T10:06:17.589Z,31.90
2019-04-27T10:08:51.293Z,31.80
2019-04-27T10:11:26.483Z,31.80
2019-04-27T10:14:01.978Z,31.80
2019-04-27T10:16:36.703Z,31.60
2019-04-27T10:19:11.623Z,31.50
2019-04-27T10:21:47.916Z,31.40
2019-04-27T10:24:23.251Z,31.30
2019-04-27T10:26:56.895Z,31.30
2019-04-27T10:29:35.499Z,31.30
2019-04-27T10:32:09.932Z,31.30
2019-04-27T10:34:47.039Z,31.20
2019-04-27T10:37:22.687Z,31.20
2019-04-27T10:39:58.484Z,31.00
2019-04-27T10:42:33.000Z,31.00
2019-04-27T10:45:07.305Z,31.00
2019-04-27T10:47:41.443Z,31.00
2019-04-27T10:50:17.259Z,30.90
2019-04-27T10:52:53.547Z,30.90
2019-04-27T10:55:27.275Z,30.80
2019-04-27T10:58:02.931Z,30.80
2019-04-27T11:00:41.027Z,30.70
2019-04-27T11:03:17.816Z,30.60
2019-04-27T11:06:13.738Z,30.50
2019-04-27T11:08:52.354Z,30.50
2019-04-27T11:11:29.796Z,30.60
2019-04-27T11:14:06.734Z,30.50
2019-04-27T11:16:41.922Z,30.50
2019-04-27T11:19:16.875Z,30.40
2019-04-27T11:21:50.608Z,30.30
2019-04-27T11:24:24.823Z,30.30
2019-04-27T11:26:58.707Z,30.10
2019-04-27T11:29:33.932Z,29.80
2019-04-27T11:32:07.858Z,29.70
2019-04-27T11:34:59.707Z,29.70
2019-04-27T11:37:37.347Z,29.70
2019-04-27T11:40:14.980Z,29.50
2019-04-27T11:42:50.478Z,29.50
2019-04-27T11:45:26.460Z,29.50
2019-04-27T11:48:03.288Z,29.40
2019-04-27T11:50:39.087Z,29.40
2019-04-27T11:53:21.967Z,29.40
2019-04-27T11:55:50.256Z,29.40
2019-04-27T11:58:26.413Z,29.60
2019-04-27T12:01:00.581Z,29.50
2019-04-27T12:03:34.840Z,29.50
2019-04-27T12:06:10.124Z,29.50
2019-04-27T12:08:45.672Z,29.60
2019-04-27T12:11:19.626Z,29.60
2019-04-27T12:13:56.179Z,29.50
2019-04-27T12:16:33.102Z,29.40
2019-04-27T12:19:06.869Z,29.40
2019-04-27T12:21:41.077Z,29.30
2019-04-27T12:24:16.123Z,29.30
2019-04-27T12:27:03.326Z,29.30
2019-04-27T12:29:55.842Z,29.40
2019-04-27T12:32:30.248Z,29.40
2019-04-27T12:35:04.110Z,29.70
2019-04-27T12:37:38.354Z,29.60
2019-04-27T12:40:13.615Z,29.60
2019-04-27T12:42:48.906Z,29.50
2019-04-27T12:45:23.735Z,29.50
2019-04-27T12:47:58.755Z,29.60
2019-04-27T12:50:32.877Z,29.50
2019-04-27T12:53:14.091Z,29.40
2019-04-27T12:56:06.553Z,29.60
2019-04-27T12:58:47.497Z,29.50
2019-04-27T13:01:25.838Z,29.40
2019-04-27T13:04:01.355Z,29.50
2019-04-27T13:06:36.038Z,29.40
2019-04-27T13:09:12.771Z,29.50
2019-04-27T13:11:49.470Z,29.40
2019-04-27T13:14:26.226Z,29.30
2019-04-27T13:17:00.091Z,29.50
2019-04-27T13:19:36.579Z,29.30
2019-04-27T13:22:14.513Z,29.20
2019-04-27T13:24:50.507Z,29.10
2019-04-27T13:27:27.083Z,29.20
2019-04-27T13:30:06.824Z,29.10
2019-04-27T13:32:41.344Z,29.10
2019-04-27T13:35:18.217Z,29.10
2019-04-27T13:37:52.915Z,29.10
2019-04-27T13:40:29.399Z,29.10
2019-04-27T13:43:04.846Z,29.00
2019-04-27T13:45:46.762Z,29.00
2019-04-27T13:48:22.786Z,28.90
2019-04-27T13:50:58.102Z,28.90
2019-04-27T13:53:32.774Z,28.90
2019-04-27T13:56:17.159Z,28.80
2019-04-27T13:58:52.022Z,28.80
2019-04-27T14:01:27.306Z,28.80
2019-04-27T14:04:06.823Z,28.60
2019-04-27T14:06:42.290Z,28.70
2019-04-27T14:09:18.531Z,28.60
2019-04-27T14:11:53.898Z,28.50
2019-04-27T14:14:29.452Z,28.60
2019-04-27T14:17:04.643Z,28.40
2019-04-27T14:19:41.364Z,28.40
2019-04-27T14:22:18.103Z,28.40
2019-04-27T14:24:54.305Z,28.50
2019-04-27T14:27:32.206Z,28.50
2019-04-27T14:30:09.129Z,28.40
2019-04-27T14:32:44.241Z,28.40
2019-04-27T14:35:20.751Z,28.60
2019-04-27T14:38:00.142Z,28.50
2019-04-27T14:40:34.426Z,28.50
2019-04-27T14:43:11.973Z,28.50
2019-04-27T14:45:48.585Z,28.60
2019-04-27T14:48:26.075Z,28.70
2019-04-27T14:51:00.736Z,28.60
2019-04-27T14:53:34.675Z,28.70
2019-04-27T14:56:10.738Z,28.70
2019-04-27T14:58:46.923Z,28.60
2019-04-27T15:01:32.669Z,28.50
2019-04-27T15:04:13.540Z,28.50
2019-04-27T15:06:56.350Z,28.50
2019-04-27T15:09:36.029Z,28.50
2019-04-27T15:12:10.149Z,28.60
2019-04-27T15:14:45.301Z,28.60
2019-04-27T15:17:23.349Z,28.60
2019-04-27T15:20:02.146Z,28.50
2019-04-27T15:22:40.190Z,28.50
2019-04-27T15:25:15.730Z,28.60
2019-04-27T15:27:53.762Z,28.50
2019-04-27T15:30:44.043Z,28.50
2019-04-27T15:33:20.504Z,28.50
2019-04-27T15:35:59.531Z,28.40
2019-04-27T15:38:38.969Z,28.40
2019-04-27T15:41:19.768Z,28.40
2019-04-27T15:44:05.889Z,28.40
2019-04-27T15:46:38.975Z,28.50
2019-04-27T15:49:14.526Z,28.50
2019-04-27T15:51:50.603Z,28.40
2019-04-27T15:54:31.987Z,28.50
2019-04-27T15:57:12.378Z,28.40
2019-04-27T15:59:45.678Z,28.50
2019-04-27T16:02:20.586Z,28.40
2019-04-27T16:04:55.897Z,28.50
2019-04-27T16:07:34.954Z,28.50
2019-04-27T16:10:12.808Z,28.50
2019-04-27T16:13:05.984Z,28.40
2019-04-27T16:15:24.294Z,28.30
2019-04-27T16:17:59.487Z,28.20
2019-04-27T16:20:34.812Z,28.30
2019-04-27T16:23:12.472Z,28.20
2019-04-27T16:25:52.641Z,28.30
2019-04-27T16:28:29.925Z,28.20
2019-04-27T16:31:04.252Z,28.20
2019-04-27T16:33:47.928Z,28.30
2019-04-27T16:36:22.659Z,28.20
2019-04-27T16:39:08.162Z,28.10
2019-04-27T16:41:42.124Z,28.10
2019-04-27T16:44:19.595Z,28.20
2019-04-27T16:46:54.831Z,28.20
2019-04-27T16:49:29.498Z,28.20
2019-04-27T16:52:04.636Z,28.20
2019-04-27T16:54:40.358Z,28.20
2019-04-27T16:57:15.282Z,28.20
2019-04-27T16:59:57.940Z,28.20
2019-04-27T17:02:26.806Z,28.10
2019-04-27T17:05:03.998Z,28.10
2019-04-27T17:07:41.895Z,28.10
2019-04-27T17:10:25.462Z,28.10
2019-04-27T17:12:56.535Z,28.00
2019-04-27T17:15:53.629Z,28.00
2019-04-27T17:18:28.801Z,28.00
2019-04-27T17:21:16.094Z,28.00
2019-04-27T17:23:40.413Z,28.00
2019-04-27T17:26:21.681Z,28.00
2019-04-27T17:28:59.951Z,28.10
2019-04-27T17:31:35.332Z,28.20
2019-04-27T17:34:08.179Z,28.20
2019-04-27T17:36:40.285Z,28.10
2019-04-27T17:39:13.854Z,28.00
2019-04-27T17:41:50.583Z,28.00
2019-04-27T17:44:23.299Z,28.10
2019-04-27T17:47:02.149Z,28.10
2019-04-27T17:49:41.985Z,28.10
2019-04-27T17:52:17.182Z,28.10
2019-04-27T17:54:49.598Z,28.20
2019-04-27T17:57:26.185Z,28.20
2019-04-27T18:00:00.085Z,28.20
2019-04-27T18:02:38.046Z,28.30
2019-04-27T18:05:13.532Z,28.20
2019-04-27T18:07:44.472Z,28.20
2019-04-27T18:10:23.231Z,28.20
2019-04-27T18:12:54.314Z,28.10
2019-04-27T18:15:31.041Z,28.10
2019-04-27T18:18:09.925Z,28.10
2019-04-27T18:20:47.437Z,28.10
2019-04-27T18:23:25.749Z,28.10
2019-04-27T18:26:12.647Z,28.10
2019-04-27T18:28:50.562Z,28.20
2019-04-27T18:31:22.835Z,28.10
2019-04-27T18:34:00.670Z,28.10
2019-04-27T18:36:37.944Z,28.10
2019-04-27T18:39:13.885Z,28.10
2019-04-27T18:41:50.493Z,28.20
2019-04-27T18:44:28.053Z,28.10
2019-04-27T18:47:02.323Z,28.10
2019-04-27T18:49:39.667Z,28.20
2019-04-27T18:52:30.881Z,28.10
2019-04-27T18:55:04.906Z,28.20
2019-04-27T18:57:38.903Z,28.10
2019-04-27T19:00:15.781Z,28.10
2019-04-27T19:03:02.663Z,28.10
2019-04-27T19:05:40.400Z,28.10
2019-04-27T19:08:12.971Z,28.10
2019-04-27T19:10:48.335Z,28.10
2019-04-27T19:13:22.447Z,28.10
2019-04-27T19:15:57.909Z,28.10
2019-04-27T19:18:31.576Z,28.10
2019-04-27T19:21:05.723Z,28.10
2019-04-27T19:23:40.256Z,28.10
2019-04-27T19:26:15.362Z,28.10
2019-04-27T19:29:00.329Z,28.10
2019-04-27T19:31:38.195Z,28.10
2019-04-27T19:34:12.752Z,28.20
2019-04-27T19:36:48.877Z,28.20
2019-04-27T19:39:23.306Z,28.20
2019-04-27T19:42:01.381Z,28.20
2019-04-27T19:44:32.697Z,28.10
2019-04-27T19:47:10.459Z,28.10
2019-04-27T19:49:45.531Z,28.10
2019-04-27T19:52:19.318Z,28.20
2019-04-27T19:54:53.040Z,28.10
2019-04-27T19:57:36.139Z,28.10
2019-04-27T20:00:03.299Z,28.10
2019-04-27T20:02:38.372Z,28.10
2019-04-27T20:05:16.300Z,28.00
2019-04-27T20:07:49.468Z,27.90
2019-04-27T20:10:24.732Z,28.00
2019-04-27T20:13:00.836Z,28.00
2019-04-27T20:15:34.925Z,28.00
2019-04-27T20:18:10.818Z,28.00
2019-04-27T20:20:44.603Z,27.90
2019-04-27T20:23:22.095Z,28.00
2019-04-27T20:25:54.496Z,28.00
2019-04-27T20:28:31.268Z,28.00
2019-04-27T20:31:04.334Z,28.00
2019-04-27T20:33:38.117Z,28.00
2019-04-27T20:36:12.488Z,28.00
2019-04-27T20:38:47.117Z,27.90
2019-04-27T20:41:21.838Z,27.90
2019-04-27T20:43:55.680Z,27.90
2019-04-27T20:46:31.231Z,27.90
2019-04-27T20:49:06.279Z,27.80
2019-04-27T20:51:57.555Z,27.90
2019-04-27T20:54:32.585Z,27.90
2019-04-27T20:57:06.784Z,27.90
2019-04-27T20:59:40.746Z,27.90
2019-04-27T21:02:32.175Z,27.90
2019-04-27T21:05:25.711Z,27.90
2019-04-27T21:08:06.673Z,27.90
2019-04-27T21:10:38.894Z,27.90
2019-04-27T21:13:12.659Z,27.90
2019-04-27T21:15:46.526Z,27.90
2019-04-27T21:18:21.711Z,27.90
2019-04-27T21:20:56.306Z,27.90
2019-04-27T21:23:31.228Z,27.90
2019-04-27T21:26:06.470Z,27.90
2019-04-27T21:28:41.531Z,27.90
2019-04-27T21:31:16.358Z,28.00
2019-04-27T21:33:50.151Z,27.90
2019-04-27T21:36:23.991Z,27.90
2019-04-27T21:38:58.049Z,27.90
2019-04-27T21:41:32.670Z,27.90
2019-04-27T21:44:06.779Z,27.90
2019-04-27T21:46:41.680Z,27.90
2019-04-27T21:49:16.177Z,28.00
2019-04-27T21:52:06.391Z,28.00
2019-04-27T21:54:44.494Z,28.00
2019-04-27T21:57:18.562Z,28.10
2019-04-27T21:59:53.065Z,28.10
2019-04-27T22:02:26.571Z,28.10
2019-04-27T22:05:00.558Z,28.10
2019-04-27T22:07:37.541Z,28.10
2019-04-27T22:10:12.158Z,28.10
2019-04-27T22:12:46.786Z,28.00
2019-04-27T22:15:41.624Z,28.00
2019-04-27T22:18:15.903Z,28.00
2019-04-27T22:20:51.065Z,28.00
2019-04-27T22:23:26.691Z,28.00
2019-04-27T22:26:01.245Z,28.00
2019-04-27T22:28:46.247Z,28.00
2019-04-27T22:31:12.530Z,28.00
2019-04-27T22:33:46.481Z,27.90
2019-04-27T22:36:21.193Z,28.00
2019-04-27T22:38:56.710Z,28.00
2019-04-27T22:41:34.792Z,28.00
2019-04-27T22:44:26.843Z,27.90
2019-04-27T22:47:01.058Z,27.90
2019-04-27T22:49:35.043Z,27.90
2019-04-27T22:52:09.087Z,27.90
2019-04-27T22:54:43.394Z,27.90
2019-04-27T22:57:18.565Z,27.90
2019-04-27T22:59:57.162Z,27.90
2019-04-27T23:02:38.333Z,27.90
2019-04-27T23:05:12.339Z,28.00
2019-04-27T23:07:46.299Z,28.00
2019-04-27T23:10:21.355Z,28.10
2019-04-27T23:12:55.243Z,28.10
2019-04-27T23:15:32.420Z,28.10
2019-04-27T23:18:06.509Z,28.10
2019-04-27T23:20:40.783Z,28.20
2019-04-27T23:23:15.587Z,28.20
2019-04-27T23:25:49.108Z,28.30
2019-04-27T23:28:23.809Z,28.30
2019-04-27T23:31:02.495Z,28.30
2019-04-27T23:33:37.132Z,28.30
2019-04-27T23:36:11.968Z,28.40
2019-04-27T23:38:46.777Z,28.40
2019-04-27T23:41:21.631Z,28.50
2019-04-27T23:43:55.398Z,28.50
2019-04-27T23:46:29.274Z,28.50
2019-04-27T23:49:03.669Z,28.60
2019-04-27T23:51:44.873Z,28.60
2019-04-27T23:54:18.703Z,28.60
2019-04-27T23:56:52.704Z,28.60
2019-04-27T23:59:26.457Z,28.70
